Date,TemperatureHighF,TemperatureAvgF,TemperatureLowF,DewpointHighF,DewpointAvgF,DewpointLowF,HumidityHigh,HumidityAvg,HumidityLow,PressureMaxIn,PressureMinIn,WindSpeedMaxMPH,WindSpeedAvgMPH,GustSpeedMaxMPH,PrecipitationSumIn
2013-2-1,28.4,18.0,8.1,11.3,4.3,-1.7,72,55,40,30.09,29.94,27,4,27,0.01
2013-2-2,45.7,17.0,3.2,9.9,-2.0,-6.9,64,46,18,30.17,30.08,12,3,13,0.04
2013-2-3,42.8,18.8,8.1,4.3,-4.6,-9.6,52,37,18,30.13,29.91,16,3,16,0.00
2013-2-4,48.2,17.9,3.6,10.9,-4.4,-11.2,51,39,18,29.96,29.88,17,4,17,0.00
2013-2-5,48.9,23.0,8.4,19.9,7.6,-4.9,65,53,25,30.01,29.91,19,2,19,0.00
2013-2-6,36.0,21.8,13.1,16.5,9.7,4.1,74,61,32,29.96,29.85,12,3,12,0.00
2013-2-7,48.7,16.0,3.4,22.8,1.3,-7.1,72,55,20,30.02,29.94,9,2,10,0.06
2013-2-8,42.4,21.5,9.0,14.0,3.2,-8.1,74,47,21,29.95,29.70,15,4,15,0.01
2013-2-9,23.0,16.7,5.5,14.2,6.4,-6.0,75,64,53,29.71,29.51,15,3,15,0.00
2013-2-10,23.0,9.8,4.3,2.8,-4.6,-8.9,63,52,26,29.75,29.56,17,3,17,0.00
2013-2-11,25.5,7.3,-1.1,2.5,-6.9,-15.0,60,52,26,29.81,29.70,10,2,10,0.00
2013-2-12,25.0,2.0,-10.1,3.9,-13.8,-24.9,58,47,32,29.91,29.81,17,2,17,0.00
2013-2-13,25.7,12.6,0.1,11.8,0.1,-13.2,67,57,41,29.94,29.86,23,3,23,0.00
2013-2-14,26.8,13.4,7.0,11.7,2.3,-4.0,70,61,41,29.97,29.88,17,3,17,0.00
2013-2-15,21.7,11.8,7.3,4.8,-0.8,-4.0,64,57,41,30.10,29.94,19,4,19,0.01
2013-2-16,37.4,16.8,5.5,12.6,0.5,-8.0,65,50,25,30.10,29.97,23,4,23,0.02
2013-2-17,40.3,21.5,6.1,35.8,-4.1,-15.7,97,35,18,29.97,29.68,22,4,22,0.01
2013-2-18,22.6,8.1,-3.6,0.3,-8.8,-18.6,62,47,25,29.91,29.71,16,4,16,0.00
2013-2-19,40.1,15.1,-4.4,3.4,-9.2,-18.8,50,35,18,29.90,29.69,12,3,12,0.01
2013-2-20,31.5,19.2,10.4,10.8,2.4,-6.0,67,49,24,29.70,29.53,12,2,12,0.00
2013-2-21,26.2,15.5,7.0,10.9,4.4,-4.4,66,61,51,29.72,29.53,13,3,13,0.00
2013-2-22,24.8,9.2,0.0,6.3,-4.0,-13.9,60,54,44,29.78,29.71,23,2,23,0.00
2013-2-23,32.5,13.8,-2.2,14.0,1.6,-15.2,68,58,42,29.76,29.60,21,2,23,0.00
2013-2-24,20.7,11.9,5.9,4.6,-0.5,-5.6,66,57,44,29.84,29.58,13,3,13,0.00
2013-2-25,33.8,10.8,1.8,11.3,-3.2,-10.7,61,53,35,29.87,29.75,15,4,15,0.00
2013-2-26,17.6,8.4,1.6,2.5,-3.7,-9.8,61,57,47,29.88,29.67,17,4,17,0.01
2013-2-27,26.4,4.9,-7.1,4.6,-11.6,-20.0,62,47,27,30.00,29.88,15,3,15,0.00
2013-2-28,24.8,7.9,-7.1,2.7,-7.1,-20.7,65,51,25,30.05,29.99,21,4,21,0.00